Time;durP1;ratioP1;P1;durP2;ratioP2;P2;SDS_P1;SDS_P2;PMS_P1;PMS_P2;Temp;Humidity;BMP_temperature;BMP_pressure;BME280_temperature;BME280_humidity;BME280_pressure;Samples;Min_cycle;Max_cycle;Signal;HPM_P1;HPM_P2
2022/07/27 00:01:27;;;;;;;6.90;6.30;;;;;;;17.72;89.74;100264.78;1790751;80;21444;-89
2022/07/27 00:03:53;;;;;;;8.25;6.87;;;;;;;17.71;89.60;100263.13;1787678;76;22052;-89
2022/07/27 00:06:21;;;;;;;6.72;6.03;;;;;;;17.68;89.27;100260.28;1767346;80;21084;-88
2022/07/27 00:08:48;;;;;;;7.75;6.95;;;;;;;17.65;88.86;100252.60;1786935;80;20975;-87
2022/07/27 00:11:14;;;;;;;8.78;6.03;;;;;;;17.61;88.48;100249.42;1783818;79;21007;-88
2022/07/27 00:13:40;;;;;;;6.83;6.22;;;;;;;17.59;88.35;100250.56;1767300;78;20998;-88
2022/07/27 00:16:08;;;;;;;7.72;7.03;;;;;;;17.54;88.41;100244.37;1770984;80;21228;-89
2022/07/27 00:18:35;;;;;;;6.60;5.92;;;;;;;17.52;88.56;100255.61;1761419;79;21464;-89
2022/07/27 00:21:01;;;;;;;7.10;6.17;;;;;;;17.49;88.71;100255.89;1770760;79;20925;-89
2022/07/27 00:23:28;;;;;;;8.08;5.90;;;;;;;17.46;88.70;100253.53;1772468;80;21425;-89
2022/07/27 00:25:55;;;;;;;7.67;6.92;;;;;;;17.40;88.82;100250.14;1782675;80;20986;-89
2022/07/27 00:28:22;;;;;;;6.87;6.28;;;;;;;17.38;89.15;100251.59;1773505;80;21195;-89
2022/07/27 00:30:49;;;;;;;6.55;5.92;;;;;;;17.37;89.27;100246.46;1790410;80;20880;-89
2022/07/27 00:33:15;;;;;;;9.40;5.90;;;;;;;17.36;89.31;100255.38;1772501;80;20951;-90
2022/07/27 00:35:42;;;;;;;6.85;6.25;;;;;;;17.34;89.19;100258.20;1782065;80;20899;-89
2022/07/27 00:38:08;;;;;;;6.87;6.22;;;;;;;17.32;89.14;100256.64;1783233;80;21085;-88
2022/07/27 00:40:35;;;;;;;8.65;5.90;;;;;;;17.29;89.00;100251.64;1768887;80;21147;-89
2022/07/27 00:43:02;;;;;;;6.60;5.83;;;;;;;17.26;88.85;100259.40;1782980;80;21014;-90
2022/07/27 00:45:28;;;;;;;6.37;5.80;;;;;;;17.22;88.67;100260.66;1785986;80;21466;-89
2022/07/27 00:47:55;;;;;;;7.12;6.42;;;;;;;17.18;88.57;100253.47;1783103;80;20911;-89
2022/07/27 00:50:22;;;;;;;6.35;5.75;;;;;;;17.14;88.63;100253.44;1781383;80;20879;-90
2022/07/27 00:52:48;;;;;;;6.28;5.78;;;;;;;17.11;88.74;100256.36;1762819;80;21120;-90
2022/07/27 00:55:17;;;;;;;7.20;6.53;;;;;;;17.08;88.66;100253.18;1779074;80;20939;-87
2022/07/27 00:57:45;;;;;;;8.25;6.42;;;;;;;17.05;88.67;100256.09;1793125;80;20876;-90
2022/07/27 01:00:13;;;;;;;6.42;5.92;;;;;;;17.02;88.92;100256.39;1764687;80;20887;-91
2022/07/27 01:02:39;;;;;;;6.65;6.05;;;;;;;17.00;89.02;100264.47;1792289;80;20880;-89
2022/07/27 01:05:07;;;;;;;6.33;5.78;;;;;;;16.98;88.99;100253.18;1762814;80;21133;-88
2022/07/27 01:07:33;;;;;;;7.25;6.08;;;;;;;16.96;88.98;100252.02;1787126;80;20991;-90
2022/07/27 01:10:00;;;;;;;6.12;5.62;;;;;;;16.94;89.07;100253.11;1759047;80;21013;-90
2022/07/27 01:12:29;;;;;;;7.90;7.10;;;;;;;16.91;89.14;100252.91;1776580;80;21002;-89
2022/07/27 01:14:56;;;;;;;7.05;6.45;;;;;;;16.91;89.43;100252.91;1793284;80;21029;-89
2022/07/27 01:17:25;;;;;;;8.20;7.10;;;;;;;16.90;89.71;100254.41;1786110;80;21108;-90
2022/07/27 01:19:51;;;;;;;8.43;6.60;;;;;;;16.89;89.90;100247.41;1773580;80;20920;-89
2022/07/27 01:22:18;;;;;;;7.45;6.72;;;;;;;16.88;90.18;100246.59;1789902;80;20967;-90
2022/07/27 01:24:45;;;;;;;10.72;6.83;;;;;;;16.87;90.45;100246.22;1782931;80;20927;-90
2022/07/27 01:27:12;;;;;;;7.42;6.75;;;;;;;16.86;90.64;100245.89;1787878;80;20887;-89
2022/07/27 01:29:39;;;;;;;7.00;6.30;;;;;;;16.86;90.82;100247.71;1774244;80;22216;-90
2022/07/27 01:32:06;;;;;;;7.42;6.17;;;;;;;16.86;90.95;100254.33;1792774;80;21097;-90
2022/07/27 01:34:32;;;;;;;12.55;6.65;;;;;;;16.86;91.06;100260.95;1781930;80;20951;-89
2022/07/27 01:37:01;;;;;;;8.60;7.33;;;;;;;16.84;91.00;100255.79;1787165;80;20955;-89
2022/07/27 01:39:28;;;;;;;6.72;6.10;;;;;;;16.84;91.24;100261.58;1789668;80;21408;-88
2022/07/27 01:41:55;;;;;;;6.55;5.72;;;;;;;16.82;91.18;100263.53;1792849;80;21135;-87
2022/07/27 01:44:23;;;;;;;6.65;6.10;;;;;;;16.80;90.98;100262.84;1794430;80;20852;-90
2022/07/27 01:46:50;;;;;;;7.47;6.53;;;;;;;16.77;91.19;100271.37;1780288;80;20951;-91
2022/07/27 01:49:16;;;;;;;7.17;6.55;;;;;;;16.77;91.57;100266.58;1777189;80;20974;-90
2022/07/27 01:51:43;;;;;;;7.50;6.62;;;;;;;16.80;91.93;100266.31;1765954;80;20851;-90
2022/07/27 01:54:10;;;;;;;7.30;6.55;;;;;;;16.80;92.03;100275.58;1775445;80;21776;-89
2022/07/27 01:56:37;;;;;;;7.35;6.65;;;;;;;16.81;92.13;100271.98;1788524;80;20991;-89
2022/07/27 01:59:04;;;;;;;6.90;5.85;;;;;;;16.83;92.11;100270.48;1761208;80;20994;-88
2022/07/27 02:01:32;;;;;;;6.92;6.03;;;;;;;16.84;92.06;100270.85;1775293;80;21554;-88
2022/07/27 02:03:59;;;;;;;6.67;6.08;;;;;;;16.83;91.99;100272.67;1778213;79;21423;-88
2022/07/27 02:06:25;;;;;;;7.10;6.22;;;;;;;16.82;91.79;100274.95;1784474;80;21102;-89
2022/07/27 02:08:52;;;;;;;7.83;7.00;;;;;;;16.83;91.46;100270.48;1762210;80;20871;-88
2022/07/27 02:14:03;;;;;;;6.55;6.05;;;;;;;16.80;91.24;100274.26;1775980;80;20992;-89
2022/07/27 02:16:31;;;;;;;7.92;6.90;;;;;;;16.78;91.06;100271.74;1771698;80;20903;-89
2022/07/27 02:18:58;;;;;;;9.10;6.83;;;;;;;16.76;91.04;100272.83;1781263;80;21292;-90
2022/07/27 02:21:26;;;;;;;7.35;6.65;;;;;;;16.74;91.10;100273.45;1764218;79;20867;-89
2022/07/27 02:23:53;;;;;;;10.40;7.50;;;;;;;16.72;90.88;100274.94;1779110;80;20884;-90
2022/07/27 02:26:19;;;;;;;6.28;5.78;;;;;;;16.72;90.67;100279.41;1794199;80;20927;-89
2022/07/27 02:28:47;;;;;;;6.17;5.67;;;;;;;16.69;90.30;100280.99;1743924;80;20967;-88
2022/07/27 02:31:14;;;;;;;6.92;6.28;;;;;;;16.65;90.06;100277.81;1777177;80;21953;-89
2022/07/27 02:33:41;;;;;;;7.08;5.92;;;;;;;16.65;89.85;100288.86;1780368;80;21517;-89
2022/07/27 02:36:08;;;;;;;5.92;5.20;;;;;;;16.61;89.72;100290.97;1786688;80;21006;-89
2022/07/27 02:38:35;;;;;;;8.73;6.25;;;;;;;16.60;89.70;100296.40;1786931;80;20916;-89
2022/07/27 02:41:01;;;;;;;6.25;5.42;;;;;;;16.58;89.53;100299.17;1765114;80;20979;-90
2022/07/27 02:43:28;;;;;;;6.37;5.67;;;;;;;16.55;89.48;100296.32;1761257;80;21132;-88
2022/07/27 02:45:55;;;;;;;9.83;7.55;;;;;;;16.55;89.80;100297.64;1767253;79;20954;-89
2022/07/27 02:48:22;;;;;;;8.83;6.62;;;;;;;16.55;89.94;100297.64;1781369;80;20931;-89
2022/07/27 02:50:49;;;;;;;7.37;6.37;;;;;;;16.55;90.02;100300.30;1769149;80;20942;-89
2022/07/27 02:53:15;;;;;;;6.90;6.30;;;;;;;16.55;89.90;100305.59;1773620;79;20872;-89
2022/07/27 02:55:42;;;;;;;6.87;6.03;;;;;;;16.54;89.80;100306.58;1791137;80;21234;-86
2022/07/27 02:58:09;;;;;;;8.05;7.25;;;;;;;16.52;89.80;100305.88;1782284;80;20919;-89
2022/07/27 03:00:37;;;;;;;8.63;7.85;;;;;;;16.52;90.05;100310.34;1766228;80;21009;-90
2022/07/27 03:03:04;;;;;;;9.30;7.28;;;;;;;16.53;90.28;100312.00;1787450;80;21689;-89
2022/07/27 03:05:30;;;;;;;7.70;6.78;;;;;;;16.54;90.34;100312.33;1765607;80;21050;-89
2022/07/27 03:07:57;;;;;;;6.95;6.33;;;;;;;16.55;90.42;100314.02;1777433;79;21134;-89
2022/07/27 03:10:23;;;;;;;7.15;6.45;;;;;;;16.55;90.44;100314.85;1770784;80;21271;-88
2022/07/27 03:12:51;;;;;;;7.78;6.92;;;;;;;16.56;90.57;100311.25;1776408;80;20938;-89
2022/07/27 03:15:17;;;;;;;7.58;6.58;;;;;;;16.59;90.74;100314.10;1761375;80;21041;-90
2022/07/27 03:17:44;;;;;;;8.98;6.72;;;;;;;16.62;91.04;100312.48;1773138;80;21456;-89
2022/07/27 03:20:11;;;;;;;10.50;8.10;;;;;;;16.66;91.21;100311.73;1792301;80;21091;-89
2022/07/27 03:22:39;;;;;;;9.35;7.90;;;;;;;16.68;91.45;100319.05;1787109;79;20927;-89
2022/07/27 03:25:07;;;;;;;12.25;8.85;;;;;;;16.74;91.79;100317.15;1774105;79;21534;-90
2022/07/27 03:27:34;;;;;;;7.65;6.95;;;;;;;16.78;91.98;100318.55;1790377;80;20888;-89
2022/07/27 03:30:01;;;;;;;8.13;7.37;;;;;;;16.84;92.15;100323.33;1775469;80;20982;-89
2022/07/27 03:32:27;;;;;;;9.65;8.65;;;;;;;16.89;92.25;100329.53;1792636;80;21254;-89
2022/07/27 03:34:54;;;;;;;10.00;8.55;;;;;;;16.94;92.38;100329.93;1778659;80;20943;-90
2022/07/27 03:37:20;;;;;;;9.48;8.50;;;;;;;16.99;92.44;100330.37;1782165;80;20931;-88
2022/07/27 03:39:47;;;;;;;9.88;8.93;;;;;;;17.05;92.61;100327.63;1794408;80;21073;-87
2022/07/27 03:42:14;;;;;;;11.05;9.43;;;;;;;17.11;92.70;100330.55;1789278;79;20998;-89
2022/07/27 03:44:42;;;;;;;10.35;9.35;;;;;;;17.16;92.69;100333.62;1782145;80;21216;-89
2022/07/27 03:47:08;;;;;;;12.28;8.50;;;;;;;17.23;92.65;100343.64;1786307;80;21476;-89
2022/07/27 03:49:35;;;;;;;11.00;9.43;;;;;;;17.27;92.76;100345.03;1778812;80;20896;-89
2022/07/27 03:52:01;;;;;;;8.98;8.08;;;;;;;17.32;92.78;100346.30;1786688;80;20924;-88
2022/07/27 03:54:28;;;;;;;10.30;8.33;;;;;;;17.38;92.84;100346.20;1786882;80;21686;-89
2022/07/27 03:56:54;;;;;;;13.68;9.73;;;;;;;17.44;93.05;100355.41;1794467;80;21113;-89
2022/07/27 03:59:22;;;;;;;9.80;8.80;;;;;;;17.50;93.26;100356.17;1783590;80;20970;-90
2022/07/27 04:01:48;;;;;;;8.25;7.55;;;;;;;17.57;93.36;100356.77;1784685;80;20946;-90
2022/07/27 04:04:15;;;;;;;9.65;8.68;;;;;;;17.66;93.37;100354.23;1761402;80;20934;-88
2022/07/27 04:06:43;;;;;;;8.20;7.50;;;;;;;17.73;93.39;100355.32;1777333;80;20998;-89
2022/07/27 04:09:10;;;;;;;11.20;7.85;;;;;;;17.81;93.44;100356.30;1794820;79;21209;-88
2022/07/27 04:11:37;;;;;;;9.25;8.35;;;;;;;17.91;93.53;100358.91;1783922;79;20966;-87
2022/07/27 04:14:04;;;;;;;8.23;7.40;;;;;;;18.00;93.65;100358.52;1791423;80;20900;-90
2022/07/27 04:16:31;;;;;;;9.23;8.38;;;;;;;18.11;93.72;100360.15;1782172;80;20987;-88
2022/07/27 04:18:57;;;;;;;9.28;8.30;;;;;;;18.21;93.73;100363.11;1793112;80;20916;-89
2022/07/27 04:21:24;;;;;;;9.28;8.45;;;;;;;18.31;93.70;100363.04;1792471;80;21203;-89
2022/07/27 04:23:51;;;;;;;8.53;7.83;;;;;;;18.44;93.64;100363.52;1771304;80;21523;-89
2022/07/27 04:26:17;;;;;;;8.48;7.67;;;;;;;18.58;93.41;100360.84;1771567;80;20990;-90
2022/07/27 04:28:44;;;;;;;12.23;7.25;;;;;;;18.79;93.58;100362.42;1771507;79;20930;-90
2022/07/27 04:31:11;;;;;;;8.13;7.53;;;;;;;19.12;93.35;100366.67;1769988;80;20971;-90
2022/07/27 04:33:38;;;;;;;9.20;7.92;;;;;;;19.60;92.61;100368.02;1777558;80;21152;-88
2022/07/27 04:36:08;;;;;;;7.25;6.70;;;;;;;20.09;90.57;100362.48;1782241;80;21026;-88
2022/07/27 04:38:35;;;;;;;7.62;7.03;;;;;;;20.57;88.35;100364.17;1776576;80;21030;-89
2022/07/27 04:41:02;;;;;;;8.95;6.70;;;;;;;21.01;85.77;100362.56;1776710;80;20955;-90
2022/07/27 04:43:29;;;;;;;6.78;6.15;;;;;;;21.51;83.55;100371.38;1765863;79;20930;-90
2022/07/27 04:45:56;;;;;;;10.30;7.17;;;;;;;22.06;81.14;100375.91;1762451;80;21145;-88
2022/07/27 04:48:23;;;;;;;6.58;6.00;;;;;;;22.62;78.25;100381.16;1787035;80;20892;-90
2022/07/27 04:50:49;;;;;;;6.70;6.12;;;;;;;23.19;75.47;100379.95;1770280;80;20895;-89
2022/07/27 04:53:16;;;;;;;6.08;5.67;;;;;;;23.76;72.65;100384.76;1761401;80;20900;-89
2022/07/27 04:55:44;;;;;;;7.22;6.53;;;;;;;24.36;69.85;100388.22;1766113;80;20884;-90
2022/07/27 04:58:12;;;;;;;11.83;5.65;;;;;;;24.93;67.82;100380.41;1764712;79;21223;-91
2022/07/27 05:00:39;;;;;;;6.00;5.55;;;;;;;25.42;65.70;100377.76;1772497;80;20966;-91
2022/07/27 05:03:07;;;;;;;6.00;5.40;;;;;;;25.88;63.71;100381.81;1761330;80;21037;-89
2022/07/27 05:05:33;;;;;;;7.17;5.08;;;;;;;26.32;62.02;100375.69;1768895;79;20895;-91
2022/07/27 05:08:01;;;;;;;5.67;5.28;;;;;;;26.76;60.72;100369.02;1785888;79;20920;-90
2022/07/27 05:10:29;;;;;;;5.78;5.30;;;;;;;27.20;59.12;100363.03;1777877;80;21329;-90
2022/07/27 05:12:56;;;;;;;5.67;5.10;;;;;;;27.66;57.76;100371.62;1794366;80;20888;-91
2022/07/27 05:15:23;;;;;;;5.08;4.67;;;;;;;28.09;56.58;100372.45;1782536;79;20887;-89
2022/07/27 05:17:51;;;;;;;4.78;4.37;;;;;;;28.47;55.17;100362.23;1775087;80;20942;-90
2022/07/27 05:20:18;;;;;;;5.37;4.87;;;;;;;28.88;53.80;100360.09;1784750;79;20979;-90
2022/07/27 05:22:45;;;;;;;4.50;4.05;;;;;;;29.27;53.47;100360.33;1776217;80;21058;-89
2022/07/27 05:25:12;;;;;;;5.58;4.60;;;;;;;29.63;52.22;100364.13;1776777;80;21665;-90
2022/07/27 05:27:40;;;;;;;4.40;4.10;;;;;;;29.98;51.27;100370.88;1777648;79;21061;-91
2022/07/27 05:30:08;;;;;;;3.92;3.60;;;;;;;30.28;50.51;100362.80;1787192;80;21011;-91
2022/07/27 05:32:35;;;;;;;3.85;3.62;;;;;;;30.56;49.68;100367.09;1793677;80;21017;-89
2022/07/27 05:35:03;;;;;;;4.20;3.80;;;;;;;30.86;48.55;100366.28;1771408;80;21127;-89
2022/07/27 05:37:30;;;;;;;3.87;3.65;;;;;;;31.15;47.80;100368.63;1794233;80;20966;-89
2022/07/27 05:39:56;;;;;;;4.65;3.87;;;;;;;31.42;47.10;100369.55;1765780;80;20887;-89
2022/07/27 05:42:23;;;;;;;7.25;3.40;;;;;;;31.68;46.40;100370.09;1774970;80;20852;-90
2022/07/27 05:44:54;;;;;;;3.00;2.90;;;;;;;31.91;45.65;100370.07;1775966;80;20997;-90
2022/07/27 05:47:21;;;;;;;3.25;2.98;;;;;;;32.15;44.81;100368.66;1787748;79;21260;-90
2022/07/27 05:49:47;;;;;;;3.05;2.85;;;;;;;32.38;44.19;100368.58;1782153;80;21065;-91
2022/07/27 05:52:15;;;;;;;3.02;2.83;;;;;;;32.60;43.70;100369.29;1793533;80;21017;-91
2022/07/27 05:54:43;;;;;;;3.17;2.90;;;;;;;32.83;43.17;100373.75;1775339;80;21001;-90
2022/07/27 05:57:10;;;;;;;5.83;2.70;;;;;;;32.98;42.55;100371.84;1767997;80;20908;-88
2022/07/27 05:59:37;;;;;;;5.00;2.05;;;;;;;33.16;41.99;100372.97;1765522;79;21253;-91
2022/07/27 06:02:03;;;;;;;2.92;1.90;;;;;;;33.35;41.45;100375.41;1774478;80;20888;-91
2022/07/27 06:04:30;;;;;;;2.98;2.77;;;;;;;33.54;40.58;100374.61;1789131;80;20904;-90
2022/07/27 06:09:42;;;;;;;2.55;2.35;;;;;;;33.94;40.19;100372.17;1783652;80;21014;-91
2022/07/27 06:12:11;;;;;;;4.05;2.10;;;;;;;34.14;39.62;100375.17;1795253;80;20967;-91
2022/07/27 06:14:39;;;;;;;3.22;3.02;;;;;;;34.28;39.05;100381.03;1779866;80;20974;-90
2022/07/27 06:17:07;;;;;;;2.25;2.15;;;;;;;34.37;38.88;100374.59;1771318;80;21705;-92
2022/07/27 06:19:38;;;;;;;4.87;2.58;;;;;;;34.53;39.16;100374.20;1784462;80;20966;-90
2022/07/27 06:22:02;;;;;;;4.28;2.25;;;;;;;34.66;38.52;100373.82;1766349;80;20955;-90
2022/07/27 06:24:29;;;;;;;2.85;2.65;;;;;;;34.77;38.07;100370.66;1787648;80;21317;-89
2022/07/27 06:26:55;;;;;;;2.47;2.30;;;;;;;34.84;37.53;100373.46;1786924;80;21333;-88
2022/07/27 06:29:22;;;;;;;2.80;2.60;;;;;;;34.73;37.33;100370.38;1774910;80;20879;-89
2022/07/27 06:31:50;;;;;;;2.58;2.37;;;;;;;34.68;38.07;100374.39;1773571;80;20904;-91
2022/07/27 06:34:17;;;;;;;2.47;2.27;;;;;;;34.74;38.29;100375.27;1778986;80;20855;-89
2022/07/27 06:36:44;;;;;;;2.42;2.30;;;;;;;34.87;37.74;100374.30;1781133;80;21145;-92
2022/07/27 06:39:12;;;;;;;2.42;2.15;;;;;;;35.04;37.37;100371.44;1788741;80;20891;-90
2022/07/27 06:41:38;;;;;;;2.80;2.62;;;;;;;35.31;37.14;100375.18;1782503;80;20970;-91
2022/07/27 06:44:05;;;;;;;2.85;2.20;;;;;;;35.56;36.57;100372.63;1761960;79;20971;-89
2022/07/27 06:46:32;;;;;;;2.35;2.15;;;;;;;35.63;36.42;100366.41;1782848;80;20990;-91
2022/07/27 06:48:59;;;;;;;4.67;3.00;;;;;;;35.72;35.78;100369.45;1772772;80;21867;-90
2022/07/27 06:51:27;;;;;;;2.10;2.00;;;;;;;35.85;35.78;100366.79;1746152;80;20860;-91
2022/07/27 06:53:53;;;;;;;2.60;2.42;;;;;;;35.79;34.80;100367.84;1782016;80;20919;-92
2022/07/27 06:56:21;;;;;;;2.98;1.67;;;;;;;35.65;34.90;100368.88;1765589;80;20943;-91
2022/07/27 06:58:48;;;;;;;2.02;1.47;;;;;;;35.67;34.26;100368.89;1772661;80;20970;-87
2022/07/27 07:01:15;;;;;;;1.87;1.67;;;;;;;35.67;34.35;100370.25;1780073;80;21323;-89
2022/07/27 07:03:41;;;;;;;1.55;1.55;;;;;;;35.74;33.95;100365.11;1792946;80;20935;-88
2022/07/27 07:06:08;;;;;;;3.20;1.92;;;;;;;35.89;34.00;100368.72;1782068;80;21049;-87
2022/07/27 07:08:34;;;;;;;2.20;2.10;;;;;;;36.04;33.37;100367.13;1775078;80;20927;-88
2022/07/27 07:11:02;;;;;;;1.90;1.80;;;;;;;36.06;33.22;100372.61;1761818;80;20974;-90
2022/07/27 07:13:31;;;;;;;2.17;2.08;;;;;;;36.07;33.91;100367.41;1761936;80;21090;-90
2022/07/27 07:15:59;;;;;;;1.82;1.72;;;;;;;36.09;33.40;100367.97;1773546;80;20960;-91
2022/07/27 07:18:27;;;;;;;4.58;3.22;;;;;;;36.15;33.14;100370.73;1784794;80;21392;-91
2022/07/27 07:20:54;;;;;;;2.52;2.33;;;;;;;36.24;32.71;100367.76;1773459;80;20869;-89
2022/07/27 07:23:21;;;;;;;5.22;3.15;;;;;;;36.15;32.65;100367.45;1776512;80;20867;-89
2022/07/27 07:25:47;;;;;;;4.00;3.58;;;;;;;36.05;32.64;100370.14;1783246;80;21374;-89
2022/07/27 07:28:14;;;;;;;2.00;1.90;;;;;;;35.90;32.54;100374.44;1776378;80;20930;-90
2022/07/27 07:30:43;;;;;;;3.33;2.25;;;;;;;35.99;32.78;100378.03;1783652;80;20892;-87
2022/07/27 07:33:09;;;;;;;2.62;2.52;;;;;;;36.28;32.79;100376.50;1738089;80;21156;-91
2022/07/27 07:35:36;;;;;;;2.50;2.30;;;;;;;36.47;32.38;100379.56;1788147;80;21073;-90
2022/07/27 07:38:03;;;;;;;3.22;3.02;;;;;;;36.47;31.61;100384.22;1777836;80;21267;-90
2022/07/27 07:40:29;;;;;;;3.22;2.83;;;;;;;36.55;31.72;100391.85;1740719;80;21006;-89
2022/07/27 07:43:02;;;;;;;2.72;2.22;;;;;;;36.56;31.28;100389.41;1774484;80;21011;-90
2022/07/27 07:45:31;;;;;;;2.98;2.77;;;;;;;36.49;31.46;100388.31;1794133;79;20970;-91
2022/07/27 07:47:58;;;;;;;2.77;2.02;;;;;;;36.56;32.05;100396.80;1778504;80;20970;-90
2022/07/27 07:50:25;;;;;;;3.50;2.35;;;;;;;36.68;31.60;100391.36;1772668;80;22076;-88
2022/07/27 07:52:52;;;;;;;11.63;10.80;;;;;;;36.81;31.80;100381.81;1794058;79;21410;-85
2022/07/27 07:55:22;;;;;;;2.40;1.82;;;;;;;37.06;31.31;100382.89;1789184;80;20998;-89
2022/07/27 07:57:49;;;;;;;2.08;1.98;;;;;;;37.14;30.50;100383.75;1778359;80;20982;-86
2022/07/27 08:00:16;;;;;;;1.40;1.30;;;;;;;37.17;30.43;100387.29;1779981;76;20884;-89
2022/07/27 08:02:51;;;;;;;1.72;1.62;;;;;;;37.27;29.53;100381.81;1795041;80;21134;-90
2022/07/27 08:05:20;;;;;;;3.50;1.70;;;;;;;37.42;29.95;100385.08;1764508;80;21097;-85
2022/07/27 08:07:49;;;;;;;1.98;1.60;;;;;;;37.54;30.03;100374.63;1778688;80;21014;-87
2022/07/27 08:10:17;;;;;;;1.40;1.25;;;;;;;37.73;29.43;100376.78;1763802;80;20946;-88
2022/07/27 08:12:46;;;;;;;1.98;1.82;;;;;;;37.96;29.67;100379.45;1786032;77;20833;-89
2022/07/27 08:15:13;;;;;;;2.25;1.67;;;;;;;38.11;29.57;100381.30;1771003;80;21205;-92
2022/07/27 08:17:42;;;;;;;4.70;2.65;;;;;;;38.22;29.44;100388.92;1780500;80;20939;-89
2022/07/27 08:20:09;;;;;;;1.52;1.42;;;;;;;38.31;29.35;100388.59;1772282;80;21026;-90
2022/07/27 08:22:37;;;;;;;1.37;1.30;;;;;;;38.34;28.99;100390.22;1782750;80;20895;-91
2022/07/27 08:25:05;;;;;;;1.45;1.37;;;;;;;38.47;28.83;100389.34;1786754;80;20959;-91
2022/07/27 08:27:34;;;;;;;2.40;1.55;;;;;;;38.59;28.52;100386.27;1793509;80;21072;-91
2022/07/27 08:30:05;;;;;;;1.50;1.40;;;;;;;38.64;28.32;100386.22;1773023;80;20951;-91
2022/07/27 08:32:32;;;;;;;1.98;1.42;;;;;;;38.56;28.54;100384.36;1769288;80;21048;-91
2022/07/27 08:34:58;;;;;;;1.60;1.50;;;;;;;38.60;28.48;100385.98;1795014;80;20942;-91
2022/07/27 08:37:26;;;;;;;1.67;1.52;;;;;;;38.76;28.13;100386.13;1786796;80;20891;-92
2022/07/27 08:39:52;;;;;;;1.82;1.37;;;;;;;38.89;28.01;100381.10;1786293;80;21770;-92
2022/07/27 08:42:19;;;;;;;2.00;1.90;;;;;;;39.03;27.82;100378.54;1765763;80;20939;-90
2022/07/27 08:44:46;;;;;;;2.95;1.75;;;;;;;39.06;27.55;100386.17;1750317;80;21053;-90
2022/07/27 08:47:13;;;;;;;2.00;1.85;;;;;;;38.94;27.42;100386.56;1788379;80;21524;-92
2022/07/27 08:49:40;;;;;;;1.57;1.47;;;;;;;38.91;27.36;100382.98;1788642;80;20982;-91
2022/07/27 08:52:09;;;;;;;2.20;2.00;;;;;;;38.90;27.45;100386.84;1777784;80;22820;-92
2022/07/27 08:54:41;;;;;;;2.37;1.55;;;;;;;38.95;27.32;100392.30;1778814;80;20960;-90
2022/07/27 08:57:08;;;;;;;1.62;1.50;;;;;;;38.88;27.99;100384.38;1785305;80;21007;-92
2022/07/27 08:59:35;;;;;;;2.35;1.50;;;;;;;38.90;27.75;100386.28;1783595;80;20931;-92
2022/07/27 09:02:06;;;;;;;1.90;1.80;;;;;;;38.93;27.60;100388.50;1762093;80;21514;-92
2022/07/27 09:04:33;;;;;;;2.00;1.90;;;;;;;38.90;27.15;100386.84;1782046;80;21627;-89
2022/07/27 09:07:00;;;;;;;1.62;1.52;;;;;;;38.82;27.25;100388.81;1787855;80;21417;-92
2022/07/27 09:09:27;;;;;;;5.08;4.67;;;;;;;38.76;27.31;100390.23;1791481;79;21010;-92
2022/07/27 09:12:06;;;;;;;2.42;1.75;;;;;;;38.83;27.37;100387.17;1787772;80;20916;-90
2022/07/27 09:14:37;;;;;;;1.90;1.75;;;;;;;38.82;27.44;100383.33;1791429;80;21038;-91
2022/07/27 09:17:24;;;;;;;2.95;1.70;;;;;;;38.83;27.17;100383.62;1745333;80;21783;-92
2022/07/27 09:20:00;;;;;;;2.80;2.00;;;;;;;38.82;27.84;100387.45;1777579;80;20935;-91
2022/07/27 09:22:53;;;;;;;2.27;2.10;;;;;;;38.86;28.21;100384.40;1790970;80;20966;-89
2022/07/27 09:25:29;;;;;;;1.70;1.60;;;;;;;38.91;28.34;100376.97;1766311;80;20939;-90
2022/07/27 09:27:57;;;;;;;1.60;1.50;;;;;;;39.03;28.34;100384.02;1787520;80;21068;-89
2022/07/27 09:30:24;;;;;;;1.82;1.82;;;;;;;38.99;27.83;100378.28;1788514;80;21419;-87
2022/07/27 09:33:04;;;;;;;2.10;1.90;;;;;;;39.00;27.75;100384.05;1790797;80;21022;-91
2022/07/27 09:35:33;;;;;;;3.60;3.35;;;;;;;39.08;27.94;100379.85;1788217;80;21010;-90
2022/07/27 09:38:23;;;;;;;4.35;2.85;;;;;;;39.15;27.91;100383.07;1761523;80;21002;-89
2022/07/27 09:41:02;;;;;;;2.20;1.90;;;;;;;39.07;26.82;100376.86;1787265;80;20872;-91
2022/07/27 09:43:30;;;;;;;1.72;1.62;;;;;;;38.76;27.37;100379.83;1787120;80;21237;-91
2022/07/27 09:46:05;;;;;;;3.25;1.80;;;;;;;38.68;27.97;100374.95;1775916;80;21176;-92
2022/07/27 09:48:34;;;;;;;1.80;1.67;;;;;;;38.82;27.79;100387.45;1745798;80;20892;-92
2022/07/27 09:51:05;;;;;;;2.02;1.92;;;;;;;38.99;27.62;100374.73;1774405;80;20951;-91
2022/07/27 09:53:33;;;;;;;3.62;3.33;;;;;;;38.92;27.91;100381.89;1786832;80;20975;-91
2022/07/27 09:56:08;;;;;;;2.67;1.47;;;;;;;38.85;27.51;100383.59;1794875;80;21246;-91
2022/07/27 09:58:50;;;;;;;1.72;1.62;;;;;;;38.78;27.50;100378.99;1795014;80;21014;-91
2022/07/27 10:01:20;;;;;;;2.80;2.60;;;;;;;38.84;27.67;100383.87;1772175;80;21026;-92
2022/07/27 10:03:49;;;;;;;8.95;8.13;;;;;;;38.83;27.59;100382.25;1780906;80;21013;-89
2022/07/27 10:06:16;;;;;;;3.47;2.00;;;;;;;38.65;27.42;100383.20;1784572;80;20880;-91
2022/07/27 10:08:46;;;;;;;3.42;3.22;;;;;;;38.28;27.55;100387.80;1766782;79;21210;-91
2022/07/27 10:11:13;;;;;;;1.98;1.87;;;;;;;37.89;28.36;100383.05;1792219;80;21353;-91
2022/07/27 10:13:40;;;;;;;2.52;2.40;;;;;;;37.40;29.07;100394.11;1767343;80;21368;-91
2022/07/27 10:16:15;;;;;;;5.40;4.90;;;;;;;37.24;29.51;100393.84;1775615;80;21014;-87
2022/07/27 10:19:22;;;;;;;2.30;2.17;;;;;;;37.14;30.04;100387.85;1776111;80;20950;-88
2022/07/27 10:21:49;;;;;;;1.90;1.80;;;;;;;36.97;29.50;100386.73;1793339;80;21224;-88
2022/07/27 10:24:31;;;;;;;1.50;1.40;;;;;;;37.04;29.74;100385.92;1765740;80;20973;-88
2022/07/27 10:26:58;;;;;;;1.60;1.50;;;;;;;37.22;29.19;100383.20;1787423;80;21019;-89
2022/07/27 10:29:25;;;;;;;2.25;1.92;;;;;;;37.43;29.11;100386.70;1768275;80;21021;-87
2022/07/27 10:31:56;;;;;;;2.22;1.90;;;;;;;37.59;28.75;100382.04;1788433;76;20971;-88
2022/07/27 10:34:40;;;;;;;2.10;1.62;;;;;;;37.60;28.36;100363.17;1795849;79;21323;-88
2022/07/27 10:38:15;;;;;;;1.82;1.72;;;;;;;37.88;29.20;100371.25;1799526;79;22848;-91
2022/07/27 10:40:43;;;;;;;3.42;1.52;;;;;;;37.90;28.44;100374.53;1697428;84;20906;-90
2022/07/27 10:43:20;;;;;;;2.33;2.05;;;;;;;37.84;28.57;100373.47;1697362;84;21140;-91
2022/07/27 10:45:51;;;;;;;6.95;4.33;;;;;;;37.82;28.38;100371.03;1669943;84;20946;-85
2022/07/27 10:48:40;;;;;;;2.60;2.40;;;;;;;37.77;28.53;100368.84;1698321;84;21122;-87
2022/07/27 10:51:08;;;;;;;4.00;2.35;;;;;;;37.87;28.71;100369.63;1698545;84;20998;-86
2022/07/27 10:53:39;;;;;;;2.37;2.17;;;;;;;38.04;28.58;100366.58;1698873;84;20932;-88
2022/07/27 10:56:08;;;;;;;2.72;2.00;;;;;;;38.11;28.28;100366.23;1698840;81;20962;-87
2022/07/27 10:58:42;;;;;;;2.40;1.75;;;;;;;38.18;28.05;100365.41;1699078;81;20915;-86
2022/07/27 11:01:11;;;;;;;1.67;1.57;;;;;;;38.20;28.34;100365.09;1698728;83;21029;-87
2022/07/27 11:03:38;;;;;;;8.30;3.58;;;;;;;38.30;28.48;100365.05;1698765;84;20911;-86
2022/07/27 11:06:13;;;;;;;8.75;4.47;;;;;;;38.40;28.03;100361.41;1698202;84;20978;-87
2022/07/27 11:08:42;;;;;;;3.85;2.33;;;;;;;38.41;27.87;100365.80;1698379;82;21155;-87
2022/07/27 11:11:16;;;;;;;2.52;1.65;;;;;;;38.35;28.25;100369.95;1698654;81;21045;-91
2022/07/27 11:13:42;;;;;;;3.00;1.85;;;;;;;38.36;27.57;100358.44;1698432;83;20963;-90
2022/07/27 11:16:11;;;;;;;2.10;1.67;;;;;;;38.34;27.79;100364.19;1698681;81;20907;-91
2022/07/27 11:18:40;;;;;;;2.65;1.80;;;;;;;38.25;28.12;100362.34;1697380;84;20943;-92
2022/07/27 11:21:35;;;;;;;2.95;2.65;;;;;;;38.21;28.23;100364.82;1697047;84;21176;-88
2022/07/27 11:24:15;;;;;;;1.98;1.87;;;;;;;38.20;27.70;100371.42;1696659;84;20899;-88
2022/07/27 11:26:48;;;;;;;1.77;1.67;;;;;;;38.09;27.61;100364.36;1697538;83;20899;-91
2022/07/27 11:29:18;;;;;;;2.67;2.33;;;;;;;37.95;28.07;100366.31;1697457;84;20907;-90
2022/07/27 11:31:47;;;;;;;1.98;1.87;;;;;;;37.84;28.16;100367.98;1696955;84;21037;-91
2022/07/27 11:34:16;;;;;;;1.82;1.72;;;;;;;37.73;27.99;100363.94;1697473;84;21069;-90
2022/07/27 11:36:50;;;;;;;1.52;1.42;;;;;;;37.67;27.77;100364.24;1694979;84;20868;-90